createdAt,value
2022-09-18T00:00:44.499Z,94.27
2022-09-18T00:01:44.605Z,94.27
2022-09-18T00:02:44.484Z,94.27
2022-09-18T00:03:44.459Z,94.27
2022-09-18T00:04:44.448Z,94.27
2022-09-18T00:05:44.446Z,94.17
2022-09-18T00:06:44.422Z,94.17
2022-09-18T00:07:44.409Z,94.17
2022-09-18T00:08:44.397Z,94.17
2022-09-18T00:09:44.403Z,94.07
2022-09-18T00:10:44.379Z,94.07
2022-09-18T00:11:44.372Z,94.07
2022-09-18T00:12:44.366Z,94.07
2022-09-18T00:13:44.361Z,93.96
2022-09-18T00:14:44.358Z,93.96
2022-09-18T00:15:44.385Z,94.07
2022-09-18T00:16:44.311Z,93.96
2022-09-18T00:17:44.310Z,93.96
2022-09-18T00:18:44.290Z,93.96
2022-09-18T00:19:44.282Z,93.96
2022-09-18T00:20:44.270Z,93.96
2022-09-18T00:21:44.253Z,93.86
2022-09-18T00:22:44.262Z,93.86
2022-09-18T00:23:44.231Z,93.86
2022-09-18T00:24:44.252Z,93.86
2022-09-18T00:25:44.240Z,93.76
2022-09-18T00:26:44.201Z,93.76
2022-09-18T00:27:44.182Z,93.76
2022-09-18T00:28:44.181Z,93.76
2022-09-18T00:29:44.191Z,93.86
2022-09-18T00:30:44.163Z,93.86
2022-09-18T00:31:44.190Z,93.82
2022-09-18T00:32:44.144Z,93.82
2022-09-18T00:33:44.123Z,93.82
2022-09-18T00:34:44.145Z,93.82
2022-09-18T00:35:44.106Z,93.71
2022-09-18T00:36:44.104Z,93.71
2022-09-18T00:37:44.084Z,93.71
2022-09-18T00:38:44.091Z,93.71
2022-09-18T00:39:44.106Z,93.71
2022-09-18T00:40:44.079Z,93.71
2022-09-18T00:41:44.046Z,93.71
2022-09-18T00:42:44.039Z,93.71
2022-09-18T00:43:44.030Z,93.82
2022-09-18T00:44:44.006Z,93.92
2022-09-18T00:45:43.998Z,94.02
2022-09-18T00:46:44.097Z,94.02
2022-09-18T00:47:43.985Z,94.02
2022-09-18T00:48:43.956Z,94.02
2022-09-18T00:49:43.999Z,94.02
2022-09-18T00:50:43.947Z,94.02
2022-09-18T00:51:43.928Z,94.07
2022-09-18T00:52:43.923Z,94.02
2022-09-18T00:53:43.899Z,94.07
2022-09-18T00:54:43.887Z,94.17
2022-09-18T00:55:43.897Z,94.27
2022-09-18T00:56:43.868Z,94.37
2022-09-18T00:57:43.858Z,94.37
2022-09-18T00:58:43.840Z,94.37
2022-09-18T00:59:43.858Z,94.37
2022-09-18T01:00:43.875Z,94.37
2022-09-18T01:01:43.864Z,94.37
2022-09-18T01:02:43.799Z,94.48
2022-09-18T01:03:43.796Z,94.48
2022-09-18T01:04:43.785Z,94.58
2022-09-18T01:05:43.781Z,94.58
2022-09-18T01:06:43.775Z,94.58
2022-09-18T01:07:43.758Z,94.58
2022-09-18T01:08:44.326Z,94.58
2022-09-18T01:09:43.720Z,94.58
2022-09-18T01:10:43.722Z,94.58
2022-09-18T01:11:43.738Z,94.58
2022-09-18T01:12:43.693Z,94.68
2022-09-18T01:13:43.688Z,94.68
2022-09-18T01:14:43.672Z,94.68
2022-09-18T01:15:43.691Z,94.68
2022-09-18T01:16:43.652Z,94.68
2022-09-18T01:17:43.644Z,94.68
2022-09-18T01:18:43.625Z,94.68
2022-09-18T01:19:43.682Z,94.68
2022-09-18T01:20:43.613Z,94.68
2022-09-18T01:21:43.625Z,94.58
2022-09-18T01:22:43.582Z,94.58
2022-09-18T01:23:43.583Z,94.58
2022-09-18T01:24:43.562Z,94.58
2022-09-18T01:25:43.574Z,94.58
2022-09-18T01:26:43.544Z,94.48
2022-09-18T01:27:43.536Z,94.48
2022-09-18T01:28:43.545Z,94.48
2022-09-18T01:29:43.516Z,94.48
2022-09-18T01:30:43.503Z,94.48
2022-09-18T01:31:43.509Z,94.48
2022-09-18T01:32:43.475Z,94.37
2022-09-18T01:33:43.455Z,94.37
2022-09-18T01:34:43.455Z,94.37
2022-09-18T01:35:43.465Z,94.37
2022-09-18T01:36:43.437Z,94.37
2022-09-18T01:37:43.427Z,94.37
2022-09-18T01:38:43.441Z,94.37
2022-09-18T01:39:43.392Z,94.27
2022-09-18T01:40:43.407Z,94.27
2022-09-18T01:41:43.387Z,94.27
2022-09-18T01:42:43.367Z,94.27
2022-09-18T01:43:43.378Z,94.27
2022-09-18T01:44:43.347Z,94.27
2022-09-18T01:45:43.398Z,94.27
2022-09-18T01:46:43.380Z,94.27
2022-09-18T01:47:43.308Z,94.27
2022-09-18T01:48:43.297Z,94.27
2022-09-18T01:49:43.292Z,94.27
2022-09-18T01:50:43.297Z,94.17
2022-09-18T01:51:43.259Z,94.17
2022-09-18T01:52:43.277Z,94.17
2022-09-18T01:53:43.259Z,94.17
2022-09-18T01:54:43.229Z,94.17
2022-09-18T01:55:43.229Z,94.17
2022-09-18T01:56:43.229Z,94.07
2022-09-18T01:57:43.210Z,94.07
2022-09-18T01:58:43.190Z,93.96
2022-09-18T01:59:43.192Z,93.86
2022-09-18T02:00:43.172Z,93.86
2022-09-18T02:01:43.258Z,93.76
2022-09-18T02:02:43.293Z,93.76
2022-09-18T02:03:43.132Z,93.76
2022-09-18T02:04:43.227Z,93.76
2022-09-18T02:05:43.152Z,93.76
2022-09-18T02:06:43.229Z,93.76
2022-09-18T02:07:43.110Z,93.76
2022-09-18T02:08:43.112Z,93.76
2022-09-18T02:09:43.290Z,93.66
2022-09-18T02:10:43.087Z,93.76
2022-09-18T02:11:43.057Z,93.66
2022-09-18T02:12:43.035Z,93.66
2022-09-18T02:13:43.033Z,93.66
2022-09-18T02:14:43.022Z,93.66
2022-09-18T02:15:43.025Z,93.66
2022-09-18T02:16:42.993Z,93.66
2022-09-18T02:17:42.991Z,93.66
2022-09-18T02:18:42.966Z,93.66
2022-09-18T02:19:43.006Z,93.66
2022-09-18T02:20:42.984Z,93.66
2022-09-18T02:21:42.924Z,93.66
2022-09-18T02:22:42.944Z,93.66
2022-09-18T02:23:42.924Z,93.66
2022-09-18T02:24:42.919Z,93.66
2022-09-18T02:25:42.895Z,93.66
2022-09-18T02:26:42.886Z,93.76
2022-09-18T02:27:42.858Z,93.76
2022-09-18T02:28:42.918Z,93.76
2022-09-18T02:29:42.846Z,93.86
2022-09-18T02:30:42.836Z,93.86
2022-09-18T02:31:42.891Z,93.86
2022-09-18T02:32:42.827Z,93.96
2022-09-18T02:33:42.796Z,94.07
2022-09-18T02:34:42.811Z,94.07
2022-09-18T02:35:42.777Z,94.17
2022-09-18T02:36:42.778Z,94.27
2022-09-18T02:37:42.809Z,94.37
2022-09-18T02:38:42.777Z,94.37
2022-09-18T02:39:42.747Z,94.37
2022-09-18T02:40:42.748Z,94.37
2022-09-18T02:41:42.710Z,94.48
2022-09-18T02:42:42.708Z,94.58
2022-09-18T02:43:42.689Z,94.68
2022-09-18T02:44:42.773Z,94.78
2022-09-18T02:45:42.670Z,94.89
2022-09-18T02:46:42.702Z,94.89
2022-09-18T02:47:42.655Z,94.98
2022-09-18T02:48:42.639Z,94.98
2022-09-18T02:49:42.669Z,95.09
2022-09-18T02:50:42.622Z,95.09
2022-09-18T02:51:42.603Z,95.19
2022-09-18T02:52:42.602Z,95.19
2022-09-18T02:53:42.590Z,95.29
2022-09-18T02:54:42.581Z,95.29
2022-09-18T02:55:42.608Z,95.29
2022-09-18T02:56:42.550Z,95.39
2022-09-18T02:57:42.542Z,95.39
2022-09-18T02:58:42.561Z,95.50
2022-09-18T02:59:42.541Z,95.50
2022-09-18T03:00:42.532Z,95.50
2022-09-18T03:01:42.589Z,95.50
2022-09-18T03:02:42.551Z,95.50
2022-09-18T03:03:42.472Z,95.60
2022-09-18T03:04:42.483Z,95.60
2022-09-18T03:05:42.461Z,95.70
2022-09-18T03:06:42.487Z,95.70
2022-09-18T03:07:42.433Z,95.80
2022-09-18T03:08:42.602Z,95.80
2022-09-18T03:09:42.424Z,95.80
2022-09-18T03:10:42.402Z,95.90
2022-09-18T03:11:42.394Z,95.90
2022-09-18T03:12:42.382Z,95.90
2022-09-18T03:13:42.373Z,95.90
2022-09-18T03:14:42.416Z,95.90
2022-09-18T03:15:42.358Z,95.90
2022-09-18T03:16:42.383Z,96.01
2022-09-18T03:17:42.335Z,96.01
2022-09-18T03:18:42.314Z,96.01
2022-09-18T03:19:42.345Z,96.11
2022-09-18T03:20:42.285Z,96.11
2022-09-18T03:21:42.276Z,96.11
2022-09-18T03:22:42.355Z,96.21
2022-09-18T03:23:45.438Z,96.21
2022-09-18T03:24:42.258Z,96.21
2022-09-18T03:25:42.258Z,96.31
2022-09-18T03:26:42.243Z,96.31
2022-09-18T03:27:42.217Z,96.36
2022-09-18T03:28:42.206Z,96.42
2022-09-18T03:29:42.238Z,96.42
2022-09-18T03:30:42.259Z,96.56
2022-09-18T03:31:42.240Z,96.51
2022-09-18T03:32:42.157Z,96.56
2022-09-18T03:33:42.157Z,96.56
2022-09-18T03:34:42.154Z,96.67
2022-09-18T03:35:42.131Z,96.67
2022-09-18T03:36:42.119Z,96.77
2022-09-18T03:37:42.108Z,96.77
2022-09-18T03:38:42.290Z,96.77
2022-09-18T03:39:42.100Z,96.87
2022-09-18T03:40:46.627Z,96.97
2022-09-18T03:41:43.059Z,96.97
2022-09-18T03:42:42.150Z,97.08
2022-09-18T03:43:42.120Z,97.08
2022-09-18T03:44:42.039Z,97.08
2022-09-18T03:45:42.028Z,97.17
2022-09-18T03:46:42.316Z,97.17
2022-09-18T03:47:42.024Z,97.17
2022-09-18T03:48:41.979Z,97.13
2022-09-18T03:49:41.979Z,97.17
2022-09-18T03:50:41.962Z,97.24
2022-09-18T03:51:41.952Z,97.24
2022-09-18T03:52:41.932Z,97.28
2022-09-18T03:53:41.932Z,97.28
2022-09-18T03:54:41.911Z,97.38
2022-09-18T03:55:41.922Z,97.38
2022-09-18T03:56:41.892Z,97.38
2022-09-18T03:57:41.888Z,97.38
2022-09-18T03:58:41.993Z,97.38
2022-09-18T03:59:41.935Z,97.49
2022-09-18T04:00:41.864Z,97.49
2022-09-18T04:01:41.919Z,97.49
2022-09-18T04:02:41.859Z,97.49
2022-09-18T04:03:41.822Z,97.49
2022-09-18T04:04:41.804Z,97.49
2022-09-18T04:05:41.815Z,97.58
2022-09-18T04:06:41.793Z,97.58
2022-09-18T04:07:41.783Z,97.58
2022-09-18T04:08:41.770Z,97.58
2022-09-18T04:09:41.752Z,97.58
2022-09-18T04:10:41.828Z,97.58
2022-09-18T04:11:41.735Z,97.58
2022-09-18T04:12:41.716Z,97.58
2022-09-18T04:13:41.717Z,97.58
2022-09-18T04:14:41.696Z,97.58
2022-09-18T04:15:41.708Z,97.58
2022-09-18T04:16:41.667Z,97.69
2022-09-18T04:17:41.678Z,97.69
2022-09-18T04:18:41.646Z,97.69
2022-09-18T04:19:41.697Z,97.69
2022-09-18T04:20:41.636Z,97.69
2022-09-18T04:21:41.617Z,97.79
2022-09-18T04:22:41.628Z,97.79
2022-09-18T04:23:41.602Z,97.79
2022-09-18T04:24:41.578Z,97.79
2022-09-18T04:25:41.629Z,97.79
2022-09-18T04:26:41.579Z,97.79
2022-09-18T04:27:41.589Z,97.79
2022-09-18T04:28:41.580Z,97.79
2022-09-18T04:29:41.537Z,97.79
2022-09-18T04:30:41.529Z,97.79
2022-09-18T04:31:41.587Z,97.79
2022-09-18T04:32:41.518Z,97.79
2022-09-18T04:33:41.509Z,97.79
2022-09-18T04:34:41.530Z,97.79
2022-09-18T04:35:41.479Z,97.79
2022-09-18T04:36:41.451Z,97.79
2022-09-18T04:37:41.454Z,97.79
2022-09-18T04:38:41.452Z,97.79
2022-09-18T04:39:41.418Z,97.79
2022-09-18T04:40:41.489Z,97.79
2022-09-18T04:41:41.401Z,97.79
2022-09-18T04:42:41.400Z,97.79
2022-09-18T04:43:41.372Z,97.79
2022-09-18T04:44:41.374Z,97.79
2022-09-18T04:45:41.361Z,97.79
2022-09-18T04:46:41.365Z,97.79
2022-09-18T04:47:41.333Z,97.79
2022-09-18T04:48:41.324Z,97.79
2022-09-18T04:49:41.312Z,97.79
2022-09-18T04:50:41.314Z,97.79
2022-09-18T04:51:41.290Z,97.79
2022-09-18T04:52:41.282Z,97.89
2022-09-18T04:53:41.273Z,97.89
2022-09-18T04:54:41.272Z,97.89
2022-09-18T04:55:41.411Z,97.89
2022-09-18T04:56:41.244Z,97.99
2022-09-18T04:57:41.243Z,97.99
2022-09-18T04:58:41.214Z,98.10
2022-09-18T04:59:41.203Z,98.10
2022-09-18T05:00:41.239Z,98.10
2022-09-18T05:01:41.247Z,98.10
2022-09-18T05:02:41.195Z,98.10
2022-09-18T05:03:41.174Z,98.20
2022-09-18T05:04:41.172Z,98.20
2022-09-18T05:05:41.145Z,98.20
2022-09-18T05:06:41.125Z,98.20
2022-09-18T05:07:41.114Z,98.20
2022-09-18T05:08:41.116Z,98.30
2022-09-18T05:09:41.100Z,98.30
2022-09-18T05:10:41.078Z,98.30
2022-09-18T05:11:41.066Z,98.30
2022-09-18T05:12:41.056Z,98.40
2022-09-18T05:13:41.056Z,98.40
2022-09-18T05:14:41.110Z,98.40
2022-09-18T05:15:41.040Z,98.40
2022-09-18T05:16:41.038Z,98.40
2022-09-18T05:17:40.998Z,98.40
2022-09-18T05:18:40.989Z,98.50
2022-09-18T05:19:40.988Z,98.50
2022-09-18T05:20:40.979Z,98.50
2022-09-18T05:21:40.964Z,98.50
2022-09-18T05:22:40.958Z,98.61
2022-09-18T05:23:40.949Z,98.61
2022-09-18T05:24:40.937Z,98.61
2022-09-18T05:25:40.919Z,98.71
2022-09-18T05:26:40.908Z,98.71
2022-09-18T05:27:40.880Z,98.71
2022-09-18T05:28:40.914Z,98.71
2022-09-18T05:29:40.896Z,98.71
2022-09-18T05:30:40.860Z,98.81
2022-09-18T05:31:40.875Z,98.81
2022-09-18T05:32:40.838Z,98.81
2022-09-18T05:33:40.832Z,98.81
2022-09-18T05:34:40.833Z,98.86
2022-09-18T05:35:40.810Z,98.91
2022-09-18T05:36:40.791Z,98.86
2022-09-18T05:37:40.779Z,98.86
2022-09-18T05:38:40.811Z,98.97
2022-09-18T05:39:40.762Z,98.97
2022-09-18T05:40:40.873Z,98.97
2022-09-18T05:41:40.770Z,99.07
2022-09-18T05:42:40.724Z,99.07
2022-09-18T05:43:40.712Z,99.07
2022-09-18T05:44:40.715Z,99.07
2022-09-18T05:45:40.712Z,99.07
2022-09-18T05:46:40.777Z,99.07
2022-09-18T05:47:40.696Z,99.07
2022-09-18T05:48:40.666Z,99.07
2022-09-18T05:49:40.654Z,99.07
2022-09-18T05:50:40.657Z,99.07
2022-09-18T05:51:40.635Z,99.07
2022-09-18T05:52:40.633Z,99.18
2022-09-18T05:53:40.596Z,99.18
2022-09-18T05:54:40.602Z,99.18
2022-09-18T05:55:40.594Z,99.18
2022-09-18T05:56:40.575Z,99.18
2022-09-18T05:57:40.566Z,99.18
2022-09-18T05:58:40.546Z,99.18
2022-09-18T05:59:40.534Z,99.18
2022-09-18T06:00:40.535Z,99.18
2022-09-18T06:01:44.878Z,99.18
2022-09-18T06:02:41.588Z,99.18
2022-09-18T06:03:40.486Z,99.18
2022-09-18T06:04:40.485Z,99.18
2022-09-18T06:05:40.575Z,99.27
2022-09-18T06:06:40.458Z,99.27
2022-09-18T06:07:40.449Z,99.27
2022-09-18T06:08:40.437Z,99.27
2022-09-18T06:09:40.480Z,99.27
2022-09-18T06:10:40.437Z,99.27
2022-09-18T06:11:40.401Z,99.27
2022-09-18T06:12:40.387Z,99.27
2022-09-18T06:13:40.379Z,99.23
2022-09-18T06:14:40.428Z,99.23
2022-09-18T06:15:40.369Z,99.23
2022-09-18T06:16:42.519Z,99.23
2022-09-18T06:17:40.340Z,99.23
2022-09-18T06:18:40.319Z,99.23
2022-09-18T06:19:40.339Z,99.23
2022-09-18T06:20:40.320Z,99.23
2022-09-18T06:21:40.319Z,99.23
2022-09-18T06:22:40.300Z,99.23
2022-09-18T06:23:40.281Z,99.23
2022-09-18T06:24:40.279Z,99.23
2022-09-18T06:25:40.271Z,99.23
2022-09-18T06:26:40.250Z,99.13
2022-09-18T06:27:40.221Z,99.13
2022-09-18T06:28:40.213Z,99.13
2022-09-18T06:29:40.203Z,99.13
2022-09-18T06:30:40.206Z,99.13
2022-09-18T06:31:40.233Z,99.13
2022-09-18T06:32:40.172Z,99.13
2022-09-18T06:33:40.153Z,99.23
2022-09-18T06:34:40.158Z,99.23
2022-09-18T06:35:40.153Z,99.23
2022-09-18T06:36:40.136Z,99.23
2022-09-18T06:37:40.120Z,99.18
2022-09-18T06:38:40.114Z,99.18
2022-09-18T06:39:40.084Z,99.18
2022-09-18T06:40:40.189Z,99.18
2022-09-18T06:41:40.073Z,99.29
2022-09-18T06:42:45.327Z,99.29
2022-09-18T06:43:41.044Z,99.18
2022-09-18T06:44:40.046Z,99.18
2022-09-18T06:45:40.044Z,99.18
2022-09-18T06:46:40.119Z,99.08
2022-09-18T06:47:40.008Z,98.98
2022-09-18T06:48:39.994Z,98.88
2022-09-18T06:49:39.985Z,98.68
2022-09-18T06:50:39.998Z,98.47
2022-09-18T06:51:39.963Z,98.27
2022-09-18T06:52:39.966Z,98.16
2022-09-18T06:53:39.947Z,97.96
2022-09-18T06:54:39.931Z,97.86
2022-09-18T06:55:39.931Z,97.71
2022-09-18T06:56:39.909Z,97.61
2022-09-18T06:57:40.109Z,97.45
2022-09-18T06:58:39.888Z,97.34
2022-09-18T06:59:39.882Z,97.14
2022-09-18T07:00:39.917Z,97.04
2022-09-18T07:01:39.895Z,96.94
2022-09-18T07:02:39.888Z,96.94
2022-09-18T07:03:39.897Z,96.94
2022-09-18T07:04:39.821Z,96.94
2022-09-18T07:05:39.819Z,97.00
2022-09-18T07:06:39.824Z,97.00
2022-09-18T07:07:39.789Z,97.00
2022-09-18T07:08:39.778Z,97.00
2022-09-18T07:09:39.761Z,97.09
2022-09-18T07:10:39.790Z,97.20
2022-09-18T07:11:39.745Z,97.20
2022-09-18T07:12:39.740Z,97.20
2022-09-18T07:13:39.721Z,97.20
2022-09-18T07:14:39.792Z,97.20
2022-09-18T07:15:39.741Z,97.20
2022-09-18T07:16:39.827Z,97.30
2022-09-18T07:17:39.679Z,97.30
2022-09-18T07:18:39.672Z,97.30
2022-09-18T07:19:39.663Z,97.16
2022-09-18T07:20:39.642Z,97.05
2022-09-18T07:21:39.673Z,96.84
2022-09-18T07:22:41.718Z,96.64
2022-09-18T07:23:40.612Z,96.44
2022-09-18T07:24:39.603Z,96.34
2022-09-18T07:25:39.594Z,96.23
2022-09-18T07:26:39.573Z,96.23
2022-09-18T07:27:39.564Z,96.23
2022-09-18T07:28:39.553Z,96.23
2022-09-18T07:29:39.544Z,96.34
2022-09-18T07:30:39.535Z,96.34
2022-09-18T07:31:39.685Z,96.44
2022-09-18T07:32:39.506Z,96.44
2022-09-18T07:33:39.494Z,96.54
2022-09-18T07:34:39.505Z,96.54
2022-09-18T07:35:39.477Z,96.64
2022-09-18T07:36:39.468Z,96.75
2022-09-18T07:37:39.451Z,96.75
2022-09-18T07:38:39.442Z,96.75
2022-09-18T07:39:39.436Z,97.36
2022-09-18T07:40:39.443Z,97.72
2022-09-18T07:41:39.421Z,97.41
2022-09-18T07:42:39.398Z,97.31
2022-09-18T07:43:39.387Z,96.75
2022-09-18T07:44:39.389Z,96.14
2022-09-18T07:45:39.421Z,95.93
2022-09-18T07:46:39.443Z,95.83
2022-09-18T07:47:39.343Z,96.03
2022-09-18T07:48:39.339Z,96.09
2022-09-18T07:49:39.340Z,96.35
2022-09-18T07:50:39.310Z,96.04
2022-09-18T07:51:39.292Z,95.59
2022-09-18T07:52:39.291Z,95.29
2022-09-18T07:53:39.271Z,94.84
2022-09-18T07:54:39.280Z,94.17
2022-09-18T07:55:39.330Z,93.35
2022-09-18T07:56:41.591Z,92.94
2022-09-18T07:57:39.221Z,93.70
2022-09-18T07:58:39.231Z,94.82
2022-09-18T07:59:39.226Z,94.42
2022-09-18T08:00:39.208Z,94.92
2022-09-18T08:01:39.409Z,94.42
2022-09-18T08:02:39.333Z,94.01
2022-09-18T08:03:41.387Z,94.92
2022-09-18T08:04:39.183Z,95.43
2022-09-18T08:05:39.142Z,94.72
2022-09-18T08:06:39.132Z,95.29
2022-09-18T08:07:39.115Z,94.88
2022-09-18T08:08:39.115Z,93.96
2022-09-18T08:09:39.124Z,93.41
2022-09-18T08:10:39.094Z,93.92
2022-09-18T08:11:39.096Z,93.10
2022-09-18T08:12:39.070Z,92.60
2022-09-18T08:13:39.055Z,93.10
2022-09-18T08:14:39.058Z,92.40
2022-09-18T08:15:39.029Z,92.45
2022-09-18T08:16:39.055Z,92.25
2022-09-18T08:17:39.018Z,92.25
2022-09-18T08:18:39.002Z,91.09
2022-09-18T08:19:39.042Z,91.55
2022-09-18T08:20:39.018Z,91.45
2022-09-18T08:21:38.960Z,88.06
2022-09-18T08:22:38.959Z,89.68
2022-09-18T08:23:38.941Z,89.17
2022-09-18T08:24:38.941Z,89.78
2022-09-18T08:25:38.930Z,89.68
2022-09-18T08:26:38.920Z,89.17
2022-09-18T08:27:38.954Z,90.53
2022-09-18T08:28:38.902Z,88.91
2022-09-18T08:29:39.011Z,89.01
2022-09-18T08:30:38.865Z,89.31
2022-09-18T08:31:38.886Z,89.11
2022-09-18T08:32:38.879Z,88.20
2022-09-18T08:33:38.825Z,89.01
2022-09-18T08:34:38.854Z,89.68
2022-09-18T08:35:38.815Z,88.46
2022-09-18T08:36:38.803Z,88.67
2022-09-18T08:37:38.784Z,89.54
2022-09-18T08:38:39.007Z,88.48
2022-09-18T08:39:38.774Z,87.87
2022-09-18T08:40:38.785Z,87.22
2022-09-18T08:41:38.748Z,86.25
2022-09-18T08:42:38.736Z,86.96
2022-09-18T08:43:38.754Z,86.08
2022-09-18T08:44:38.727Z,88.01
2022-09-18T08:45:38.733Z,87.55
2022-09-18T08:46:38.736Z,87.34
2022-09-18T08:47:38.688Z,86.27
2022-09-18T08:48:38.670Z,87.59
2022-09-18T08:49:38.708Z,86.88
2022-09-18T08:50:38.922Z,86.63
2022-09-18T08:51:38.655Z,88.06
2022-09-18T08:52:38.637Z,88.87
2022-09-18T08:53:38.621Z,87.04
2022-09-18T08:54:38.617Z,88.46
2022-09-18T08:55:38.591Z,89.07
2022-09-18T08:56:38.590Z,86.53
2022-09-18T08:57:38.571Z,88.06
2022-09-18T08:58:38.569Z,88.46
2022-09-18T08:59:38.583Z,87.75
2022-09-18T09:00:38.583Z,87.85
2022-09-18T09:01:38.696Z,86.43
2022-09-18T09:02:38.538Z,87.24
2022-09-18T09:03:38.504Z,87.55
2022-09-18T09:04:38.503Z,87.75
2022-09-18T09:05:38.488Z,87.65
2022-09-18T09:06:38.473Z,87.85
2022-09-18T09:07:38.464Z,87.45
2022-09-18T09:08:38.455Z,86.83
2022-09-18T09:09:38.444Z,87.08
2022-09-18T09:10:38.435Z,85.96
2022-09-18T09:11:38.415Z,88.30
2022-09-18T09:12:38.996Z,87.79
2022-09-18T09:13:38.386Z,85.96
2022-09-18T09:14:56.077Z,84.84
2022-09-18T09:15:39.366Z,86.16
2022-09-18T09:16:38.427Z,85.15
2022-09-18T09:17:38.351Z,86.37
2022-09-18T09:18:38.339Z,87.04
2022-09-18T09:19:38.338Z,87.24
2022-09-18T09:20:38.317Z,86.90
2022-09-18T09:21:38.418Z,85.78
2022-09-18T09:22:38.298Z,86.19
2022-09-18T09:23:38.279Z,86.69
2022-09-18T09:24:38.288Z,86.49
2022-09-18T09:25:38.262Z,85.78
2022-09-18T09:26:38.258Z,86.19
2022-09-18T09:27:38.232Z,85.21
2022-09-18T09:28:38.230Z,85.41
2022-09-18T09:29:38.230Z,84.09
2022-09-18T09:30:38.210Z,84.60
2022-09-18T09:31:38.251Z,85.62
2022-09-18T09:32:38.194Z,85.82
2022-09-18T09:33:38.173Z,85.52
2022-09-18T09:34:38.182Z,85.21
2022-09-18T09:35:38.154Z,85.11
2022-09-18T09:36:38.143Z,85.21
2022-09-18T09:37:38.145Z,85.66
2022-09-18T09:38:38.133Z,85.96
2022-09-18T09:39:38.116Z,86.16
2022-09-18T09:40:38.135Z,86.27
2022-09-18T09:41:38.084Z,86.37
2022-09-18T09:42:38.075Z,86.51
2022-09-18T09:43:38.055Z,86.82
2022-09-18T09:44:38.064Z,86.92
2022-09-18T09:45:38.167Z,87.26
2022-09-18T09:46:38.059Z,87.37
2022-09-18T09:47:38.017Z,87.77
2022-09-18T09:48:38.006Z,88.18
2022-09-18T09:49:38.007Z,88.42
2022-09-18T09:50:37.986Z,88.73
2022-09-18T09:51:37.978Z,89.44
2022-09-18T09:52:37.970Z,91.58
2022-09-18T09:53:37.961Z,92.29
2022-09-18T09:54:37.949Z,92.60
2022-09-18T09:55:37.928Z,92.64
2022-09-18T09:56:37.931Z,93.10
2022-09-18T09:57:37.907Z,93.05
2022-09-18T09:58:37.903Z,93.35
2022-09-18T09:59:37.919Z,92.94
2022-09-18T10:00:37.920Z,92.03
2022-09-18T10:01:37.891Z,91.83
2022-09-18T10:02:37.860Z,91.42
2022-09-18T10:03:37.841Z,91.31
2022-09-18T10:04:37.850Z,91.42
2022-09-18T10:05:37.819Z,90.91
2022-09-18T10:06:37.811Z,91.01
2022-09-18T10:07:37.800Z,91.83
2022-09-18T10:08:37.856Z,91.72
2022-09-18T10:09:37.780Z,91.42
2022-09-18T10:10:37.822Z,91.31
2022-09-18T10:11:37.754Z,90.70
2022-09-18T10:12:37.742Z,90.81
2022-09-18T10:13:37.734Z,90.30
2022-09-18T10:14:37.744Z,90.09
2022-09-18T10:15:37.721Z,89.28
2022-09-18T10:16:37.742Z,88.53
2022-09-18T10:17:37.723Z,87.92
2022-09-18T10:18:37.734Z,89.14
2022-09-18T10:19:37.674Z,89.14
2022-09-18T10:20:37.664Z,88.02
2022-09-18T10:21:37.672Z,88.83
2022-09-18T10:22:37.638Z,89.54
2022-09-18T10:23:37.626Z,89.64
2022-09-18T10:24:37.677Z,90.66
2022-09-18T10:25:37.690Z,90.25
2022-09-18T10:26:37.599Z,89.24
2022-09-18T10:27:37.576Z,88.73
2022-09-18T10:28:37.579Z,87.51
2022-09-18T10:29:37.568Z,89.03
2022-09-18T10:30:37.805Z,88.83
2022-09-18T10:31:37.626Z,88.69
2022-09-18T10:32:37.529Z,89.40
2022-09-18T10:33:37.532Z,88.79
2022-09-18T10:34:37.509Z,87.98
2022-09-18T10:35:37.498Z,87.47
2022-09-18T10:36:37.480Z,87.87
2022-09-18T10:37:37.491Z,88.48
2022-09-18T10:38:37.459Z,88.48
2022-09-18T10:39:37.460Z,88.18
2022-09-18T10:40:37.485Z,87.57
2022-09-18T10:41:37.603Z,87.26
2022-09-18T10:42:37.416Z,87.98
2022-09-18T10:43:37.457Z,87.67
2022-09-18T10:44:37.413Z,87.26
2022-09-18T10:45:37.382Z,87.16
2022-09-18T10:46:37.427Z,87.30
2022-09-18T10:47:37.366Z,85.68
2022-09-18T10:48:37.356Z,86.49
2022-09-18T10:49:37.352Z,87.61
2022-09-18T10:50:37.338Z,87.81
2022-09-18T10:51:37.321Z,88.12
2022-09-18T10:52:37.305Z,88.32
2022-09-18T10:53:37.293Z,89.75
2022-09-18T10:54:37.294Z,90.25
2022-09-18T10:55:37.305Z,89.07
2022-09-18T10:56:37.273Z,90.09
2022-09-18T10:57:37.374Z,90.09
2022-09-18T10:58:37.244Z,89.28
2022-09-18T10:59:37.354Z,89.28
2022-09-18T11:00:37.274Z,89.48
2022-09-18T11:01:40.419Z,89.79
2022-09-18T11:02:40.112Z,89.32
2022-09-18T11:03:37.256Z,89.42
2022-09-18T11:04:37.200Z,89.63
2022-09-18T11:05:37.287Z,90.34
2022-09-18T11:06:37.147Z,91.05
2022-09-18T11:07:37.153Z,90.20
2022-09-18T11:08:37.139Z,89.28
2022-09-18T11:09:37.137Z,90.20
2022-09-18T11:10:37.202Z,89.48
2022-09-18T11:11:37.158Z,89.38
2022-09-18T11:12:37.086Z,89.59
2022-09-18T11:13:37.109Z,88.98
2022-09-18T11:14:37.068Z,88.16
2022-09-18T11:15:37.070Z,89.07
2022-09-18T11:16:37.144Z,89.24
2022-09-18T11:17:37.051Z,88.26
2022-09-18T11:18:37.019Z,88.63
2022-09-18T11:19:37.071Z,88.73
2022-09-18T11:20:37.041Z,88.83
2022-09-18T11:21:37.093Z,88.73
2022-09-18T11:22:37.134Z,88.22
2022-09-18T11:23:36.970Z,88.42
2022-09-18T11:24:36.952Z,88.32
2022-09-18T11:25:36.961Z,87.81
2022-09-18T11:26:36.945Z,88.32
2022-09-18T11:27:36.922Z,87.10
2022-09-18T11:28:36.922Z,87.92
2022-09-18T11:29:36.938Z,88.53
2022-09-18T11:30:36.902Z,88.36
2022-09-18T11:31:36.969Z,89.38
2022-09-18T11:32:36.882Z,90.20
2022-09-18T11:33:36.853Z,91.01
2022-09-18T11:34:36.855Z,90.81
2022-09-18T11:35:36.844Z,90.34
2022-09-18T11:36:36.824Z,90.03
2022-09-18T11:37:36.871Z,90.14
2022-09-18T11:38:36.805Z,90.24
2022-09-18T11:39:36.798Z,90.95
2022-09-18T11:40:36.845Z,91.36
2022-09-18T11:41:36.774Z,92.27
2022-09-18T11:42:36.773Z,92.27
2022-09-18T11:43:36.748Z,92.99
2022-09-18T11:44:36.790Z,93.19
2022-09-18T11:45:36.756Z,93.29
2022-09-18T11:46:36.823Z,93.09
2022-09-18T11:47:36.726Z,93.29
2022-09-18T11:48:36.687Z,93.40
2022-09-18T11:49:36.687Z,93.09
2022-09-18T11:50:36.700Z,92.89
2022-09-18T11:51:36.678Z,92.99
2022-09-18T11:52:36.649Z,92.99
2022-09-18T11:53:36.659Z,93.19
2022-09-18T11:54:36.640Z,93.40
2022-09-18T11:55:36.619Z,93.50
2022-09-18T11:56:36.622Z,93.60
2022-09-18T11:57:36.612Z,93.40
2022-09-18T11:58:36.589Z,93.70
2022-09-18T11:59:36.571Z,93.80
2022-09-18T12:00:36.560Z,93.70
2022-09-18T12:01:36.862Z,93.50
2022-09-18T12:02:36.669Z,93.29
2022-09-18T12:03:36.552Z,93.19
2022-09-18T12:04:36.520Z,93.09
2022-09-18T12:05:36.521Z,92.99
2022-09-18T12:06:36.492Z,92.99
2022-09-18T12:07:41.856Z,93.09
2022-09-18T12:08:35.126Z,93.09
2022-09-18T12:09:35.211Z,93.09
2022-09-18T12:10:35.577Z,93.24
2022-09-18T12:11:35.075Z,93.19
2022-09-18T12:12:35.075Z,93.19
2022-09-18T12:13:35.059Z,93.33
2022-09-18T12:14:35.041Z,93.40
2022-09-18T12:15:35.051Z,94.21
2022-09-18T12:16:35.059Z,93.50
2022-09-18T12:17:35.031Z,94.42
2022-09-18T12:18:35.000Z,95.13
2022-09-18T12:19:34.998Z,95.23
2022-09-18T12:20:34.997Z,95.03
2022-09-18T12:21:34.998Z,95.18
2022-09-18T12:22:34.976Z,93.96
2022-09-18T12:23:34.966Z,94.88
2022-09-18T12:24:34.935Z,94.17
2022-09-18T12:25:35.024Z,93.76
2022-09-18T12:26:34.914Z,94.07
2022-09-18T12:27:34.883Z,94.47
2022-09-18T12:28:34.873Z,94.68
2022-09-18T12:29:34.864Z,95.24
2022-09-18T12:30:34.873Z,95.54
2022-09-18T12:31:34.940Z,94.84
2022-09-18T12:32:34.831Z,93.10
2022-09-18T12:33:34.949Z,93.10
2022-09-18T12:34:34.849Z,92.60
2022-09-18T12:35:34.810Z,93.37
2022-09-18T12:36:34.799Z,93.06
2022-09-18T12:37:34.769Z,92.35
2022-09-18T12:38:34.767Z,92.35
2022-09-18T12:39:35.423Z,93.02
2022-09-18T12:40:35.457Z,92.91
2022-09-18T12:41:35.560Z,92.41
2022-09-18T12:42:35.388Z,91.35
2022-09-18T12:43:35.368Z,90.44
2022-09-18T12:44:35.366Z,91.75
2022-09-18T12:45:35.396Z,91.35
2022-09-18T12:46:35.346Z,91.61
2022-09-18T12:47:35.365Z,90.70
2022-09-18T12:48:35.318Z,89.83
2022-09-18T12:49:35.293Z,89.62
2022-09-18T12:50:35.294Z,89.62
2022-09-18T12:51:35.280Z,88.30
2022-09-18T12:52:35.267Z,89.11